Historyczne dane pomiarowe

Dodano dane terminowe – wersja testowa.

Dane z okresu 1951-2019

Wersja bazy: 1.34 [2019-03-16, lista zmian], aktualizacja planowana na 2019-04-15

Dane meteo z obszaru Polski uzyskane na podstawie danych udostępnionych przez Instytut Meteorologii i Gospodarki Wodnej – Państwowy Instytut Badawczy.

 

Wybierz Datę:    

       

TemperaturaWilgotnośćWiatrCiśnienieOpadyŚniegCzas trwania zjawisk
 Stacja t tx tn tng RH VA  wxwx mslp ppp RRR   cm mm wxwxwxwxwxwxwx
2019-07-31 21.4 25.8 18.6 18.7 81.6 20.7- 1.3--1012.2 978.2 1.9 0.3 0.0x- 2.2-------
2019-07-30 23.4 30.6 18.6 18.4 68.5 19.2- 2.1--1007.9 974.3 0.9 0.9 0.0x- 9.8-------
2019-07-29 24.0 32.2 18.5 18.7 62.3 17.9- 2.0--1005.2 971.7 0.0 0.0 0.0x- 10.9-------
2019-07-28 24.2 32.1 16.4 15.4 61.8 17.6- 2.0--1003.8 970.4 0.0 0.0 0.0x- 10.9-------
2019-07-27 20.9 25.8 15.2 15.3 70.9 17.0- 1.4--1006.6 972.7 0.0 0.0 0.0x- 7.0-------
2019-07-26 22.0--- 65.4 16.5----1011.4 977.5 0.0 0.0 0.0x- 10.0-------
2019-07-25 21.5 28.7 14.6 14.2 67.6 16.1- 0.9--1018.4 984.2 0.0 0.0 0.0x- 12.0-------
2019-07-24 19.0 23.1 16.6 16.7 83.5 18.3- 1.1--1019.2 984.6 0.2 0.2 0.0x- 2.7-------
2019-07-23 17.2 22.2 16.3 16.1 87.0 17.0- 1.0--1020.6 985.8 0.4 0.3 0.1x- 0.0-------
2019-07-22 20.0 26.5 13.9 12.2 70.8 15.8- 0.9--1021.7 987.2 0.8 0.0 0.8x- 9.4-------
2019-07-21 20.2 31.0 16.8 15.3 79.3 18.2- 1.8--1018.7 984.3 14.3 14.2 0.1x- 4.7-------
2019-07-20 20.2 27.1 15.6 15.0 70.6 16.7- 1.3--1017.5 983.1 1.1 1.1 0.0x- 4.8-------
2019-07-19 19.2 28.5 9.5 7.6 60.9 12.6- 0.9--1015.7 981.3 0.0 0.0 0.0x- 10.7-------
2019-07-18 17.6 24.4 9.8 7.9 60.5 11.3- 1.0--1013.8 979.3 0.0 0.0 0.0x- 9.9-------
2019-07-17 16.9 21.5 11.5 9.6 58.6 10.9- 2.6--1012.6 978.0 0.0 0.0 0.0x- 6.0-------
2019-07-16 16.0 23.1 7.9 6.1 62.5 11.1- 1.6--1013.0 978.3 0.0 0.0 0.0x- 10.7-------
2019-07-15 16.2 23.3 8.4 6.6 60.5 10.2- 1.1--1013.6 978.9 0.0 0.0 0.0x- 13.7-------
2019-07-14 15.5 20.5 14.2 13.1 81.1 14.1- 1.1--1012.2 977.5 0.1 0.1 0.0x- 3.4-------
2019-07-13 16.6 23.1 13.7 13.1 70.8 13.2- 1.1--1010.0 975.5 4.1 0.0 4.1x- 1.5-------
2019-07-12 16.7 24.5 6.2 4.2 57.3 9.8- 0.9--1011.9 977.3 0.0 0.0 0.0x- 11.0-------
2019-07-11 14.3 18.9 10.0 7.8 69.0 11.0- 1.5--1013.0 978.1 5.8 5.8 0.0x- 6.6-------
2019-07-10 15.3 21.0 11.7 8.7 55.8 9.5- 2.9--1013.9 979.1 0.4 0.0 0.4x- 6.1-------
2019-07-09 14.6 20.6 7.6 5.3 51.8 8.2- 2.3--1014.6 979.6 0.0 0.0 0.0x- 7.9-------
2019-07-08 16.7 20.5 13.0 11.7 44.9 8.3- 3.1--1013.3 978.7 0.0 0.0 0.0x- 11.7-------
2019-07-07 19.6 26.6 15.5 13.4 60.9 13.7- 1.5--1006.8 972.7 0.0 0.0 0.0x- 7.0-------
2019-07-06 21.5 29.1 15.3 14.7 49.4 11.9- 1.6--1010.1 976.1 0.0 0.0 0.0x- 7.7-------
2019-07-05 17.5 24.6 8.4 6.6 57.4 10.9- 1.4--1014.6 980.0 0.0 0.0 0.0x- 5.9-------
2019-07-04 16.5 23.7 7.7 5.7 53.0 9.1- 1.1--1020.8 985.9 0.0 0.0 0.0x- 15.1-------
2019-07-03 17.8 23.3 11.9 9.7 53.3 10.2- 1.9--1019.3 984.6 0.0 0.0 0.0x- 15.2-------
2019-07-02- 29.2 19.9 18.8-------- 0.0 0.0 0.0x- 9.4-------
2019-07-01 27.2 36.1 18.2 14.7 46.9 15.7- 2.1--1012.9 979.5 0.0 0.0 0.0x- 12.3-------
2019-06-30 24.0 34.4 12.6 10.4 56.0 14.9- 1.4--1017.5 983.6 0.0 0.0 0.0x- 14.9-------
2019-06-29 20.2 25.8 14.6 12.8 49.0 11.2- 1.9--1020.9 986.4 0.0 0.0 0.0x- 14.3-------
2019-06-28 18.0 23.1 14.6 12.3 64.0 13.1- 2.1--1020.3 985.6 0.0 0.0 0.0x- 8.6-------
2019-06-27 24.9 29.9 22.8 20.9 53.6 16.7- 2.8--1016.5 982.7 0.0 0.0 0.0x- 14.1-------
2019-06-26 26.3 33.9 17.8 15.7 64.3 20.7- 1.3--1022.0 988.1 0.0 0.0 0.0x- 14.6-------
2019-06-25 23.5 30.9 15.5 14.0 72.8 20.2- 1.4--1024.6 990.4 0.0 0.0 0.0x- 12.4-------
2019-06-24 21.3 24.6 18.0 16.0 69.6 17.4- 2.1--1022.9 988.5 0.0 0.0 0.0x- 4.6-------
2019-06-23 20.5 24.9 16.8 16.0 75.9 17.9- 1.5--1018.7 984.3 0.0 0.0 0.0x- 2.4-------
2019-06-22 19.4 24.7 15.8 14.7 87.3 19.5- 0.9--1019.5 985.0 5.8 3.6 2.2x- 4.9-------
2019-06-21 20.9 27.4 17.3 16.6 79.5 19.1- 1.0--1015.1 980.9 0.7 0.7 0.0x- 5.9-------
2019-06-20 20.0 27.1 16.4 15.6 84.3 19.4- 1.9--1012.3 978.1 10.6 10.1 0.5x- 3.2-------
2019-06-19 20.5 28.9 14.8 14.2 79.0 18.5- 1.3--1014.0 979.8 0.7 0.7 0.0x- 6.6-------
2019-06-18 17.8 23.8 10.8 9.7 79.0 16.0- 1.6--1019.2 984.5 0.0 0.0 0.0x- 3.3-------
2019-06-17 17.7 21.0 16.7 17.1 78.1 15.8- 1.1--1021.1 986.3 0.1 0.1 0.0x- 4.2-------
2019-06-16 22.6 29.8 18.9 17.1 75.9 20.2- 1.8--1015.1 981.2 5.1 3.8 1.3x- 9.3-------
2019-06-15 26.0 34.1 18.1 17.4 64.4 20.2- 1.5--1014.0 980.4 0.0 0.0 0.0x- 10.7-------
2019-06-14 24.9 30.3 19.3 17.8 67.5 21.0- 1.6--1017.3 983.5 0.0 0.0 0.0x- 13.6-------
2019-06-13 26.1 33.7 17.3 15.5 55.5 17.6- 1.5--1013.3 979.8 0.0 0.0 0.0x- 14.5-------
2019-06-12 25.3 32.3 16.2 15.1 52.4 15.7- 2.3--1013.1 979.5 0.0 0.0 0.0x- 14.3-------
2019-06-11 25.1 31.6 16.1 14.6 55.3 16.1- 2.4--1014.0 980.3 0.0 0.0 0.0x- 15.2-------
2019-06-10 23.4 31.9 14.3 12.0 64.0 16.8- 1.6--1017.4 983.4 0.1 0.1 0.0x- 14.7-------
2019-06-09 20.7 25.1 17.2 16.2 63.4 15.4- 1.8--1024.8 990.2 0.0 0.0 0.0x- 10.8-------
2019-06-08 21.8 28.8 14.2 12.6 67.6 16.8- 1.4--1018.5 984.2 0.0 0.0 0.0x- 11.9-------
2019-06-07 20.6 26.3 14.9 12.7 71.5 17.0- 1.4--1014.9 980.7 0.0 0.0 0.0x- 10.5-------
2019-06-06 19.8 25.5 12.7 11.1 64.1 14.3- 1.6--1012.4 978.2 2.8 0.0 2.8x- 12.4-------
2019-06-05 20.3 26.8 13.2 11.5 68.5 15.3- 1.9--1011.5 977.3 0.0 0.0 0.0x- 9.3-------
2019-06-04 20.3 27.2 12.9 10.9 68.1 15.4- 1.8--1013.9 979.7 0.0 0.0 0.0x- 14.2-------
2019-06-03 19.8 26.5 11.1 9.7 65.9 14.3- 1.5--1017.7 983.3 0.0 0.0 0.0x- 14.7-------
2019-06-02 18.9 25.4 12.1 10.6 71.1 14.7- 1.4--1019.5 985.0 0.0 0.0 0.0x- 12.0-------
70.1 ms

 

Źródłem pochodzenia danych jest Instytut Meteorologii i Gospodarki Wodnej – Państwowy Instytut Badawczy. Dane Instytutu Meteorologii i Gospodarki Wodnej – Państwowego Instytutu Badawczego zostały przetworzone.

Dane źródłowe można odnaleźć na stronie https://dane.imgw.pl